Relevés horaires Florennes (Belgique)


Relevés horaires à Florennes - Vendredi 01 Mai 2026
Heure UTC1 Température [°C] Vent [km/h] Hum. [%] Pres.4 [hPa] Visi. [Km] Nébu. [octa] Préc.5 [mm] Cond.
2m. Res. Ros. Dir.2 Vit. Moy. Raf.3
23:00 15.2 15.2 0.1 SE 3.7 -- 5.6 36 1021(-0.4/3h) >70 -- -- --
22:00 16.5 16.5 -- NNO 1.9 -- 3.7 -- 1021.2(0.1/3h) >70 -- -- --
21:00 16.8 16.8 0.1 NNO 1.9 -- 5.6 32 1021.3(0.5/3h) >70 -- -- --
20:00 16.3 16.3 0.9 NNO 1.9 -- 3.7 35 1021.3(0.1/3h) >70 -- -- --
19:00 18.8 18.8 0.1 NNO 1.9 -- 5.6 28 1020.8(-0.2/3h) >70 -- -- --
18:00 21.1 21.1 -1.6 S 3.7 -- 13.0 22 1020.3(-0.5/3h) >70 -- -- --
17:00 22.0 22.0 -3.4 S 5.6 -- 9.3 18 1020.5(-0.7/3h) >70 -- -- --
16:00 22.0 22.0 -4.0 SSE 5.6 -- 11.1 17 1020.7(-1.0/3h) >70 -- -- --
15:00 22.7 22.7 -3.0 S 5.6 -- 13.0 18 1020.7(-1.1/3h) >70 -- -- --
14:00 22.1 22.1 -1.3 SE 5.6 -- 11.1 21 1021.2(-1.1/3h) >70 -- -- --
13:00 21.1 21.1 -1.9 SSE 5.6 -- 13.0 21 1021.8(-0.8/3h) >70 -- -- --
12:00 20.4 20.4 -4.6 SE 5.6 -- 14.8 18 1022.2(-0.7/3h) >70 -- -- --
11:00 19.1 19.1 -5.9 SE 5.6 -- 13.0 18 1022.7(-0.3/3h) >70 -- -- --
10:00 17.9 17.9 -4.1 SE 7.4 -- 13.0 22 1023.2(-0.2/3h) >70 -- -- --
09:00 16.2 16.1 -3.8 SE 9.3 -- 14.8 25 1023.6(0.0/3h) >70 -- -- --
08:00 14.5 14.1 -1.8 SE 9.3 -- 14.8 32 1023.7(0.3/3h) >70 -- -- --
07:00 11.7 11.1 -3.1 SE 7.4 -- 13.0 35 1024.2(0.5/3h) >70 -- -- --
06:00 10.1 9.7 -3.6 SE 5.6 -- 13.0 38 1024.2(0.5/3h) >70 -- -- --
05:00 8.6 8 -4.6 ESE 5.6 -- 7.4 39 1024(0.0/3h) >70 -- -- --
04:00 9.0 9.0 -5.3 SE 3.7 -- 13.0 36 1024(-0.3/3h) >70 -- -- --
03:00 8.9 7.4 -4.9 SE 9.3 -- 13.0 37 1023.8(-0.4/3h) >70 -- -- --
02:00 9.2 8.2 -5.1 SE 7.4 -- 11.1 36 1024(-0.4/3h) >70 -- -- --
01:00 9.6 8.7 -5.1 SE 7.4 -- 11.1 35 1024.2(-0.3/3h) >70 -- -- --
00:00 10.8 10.1 -5.4 ESE 7.4 -- 16.7 32 1024.2(0.0/3h) >70 -- -- --

1 Coordinated Universal Time. Actuellement il est 09:00 locale et 07:00 UTC.

2 Le vent souffle depuis la direction indiquée vers la direction oposée.

3 Les rafales max. sont disponible 40 min après l'heure du relevé.

4 Pour les stations d'altitude (plus de 600m) le géopotentiel du niveau le plus proche de la pression obligatoire est indiqué.

5 Les stations disposant d'un diffuseur peuvent indiquer "trace". Cela signifie que des précipitations ont touchés le sol mais que la quantité est inférieure à 0.1 mm.

Récapitulatif de la journée
Température [°C] Vent [km/h] Ensoleillement4 [h] Precipitations totale5 [mm] Pression [Hpa]
Min1 Max.2 Moy.3 Max. Min Max.
7.6 23.0 0 16.7 0 h 0 min 0 1020.3 1024.2

1 Température minimale relevée entre 18:00 UTC la veille et 18:00 UTC le jour donné.

2 Température maximale relevée entre 06:00 UTC le jour donné et 06:00 UTC le lendemain.

3 Vent moyen de la journée basé sur les relevés horaires.

4 Ensoleillement en heures relevé entre 06:00 UTC la veille et 06:00 UTC le jour donné.

5 Précipitations totales tombées entre 06:00 UTC la jour donné et 06:00 UTC le lendemain.

Graphiques horaires